N966DS KICT-KSTL
Flight info
| Callsign | N966DS |
|---|---|
| Flight time | 2h 17m |
| Altitude | 11000 |
| Route | DCT ROKNE DCT BUM KOOOP1 |
| Aircraft | M20R/L-G/C |
Departure
| Time | 2026-05-08 00:33 |
|---|---|
| Airport | Wichita Dwight D. Eisenhower National Airport (KICT) |
Arrival
| Time | 2026-05-08 02:50 |
|---|---|
| Airport | St. Louis Lambert International Airport (KSTL) |
| Time | Latitude | Longitude | Altitude | Speed | Heading |
|---|---|---|---|---|---|
| 2026-05-08 00:20 | 37.65684 | -97.42412 | 1326 ft | 0 kts | 25° |
| 2026-05-08 00:26 | 37.65695 | -97.42398 | 1326 ft | 7 kts | 57° |
| 2026-05-08 00:26 | 37.65745 | -97.42341 | 1326 ft | 10 kts | 24° |
| 2026-05-08 00:27 | 37.65807 | -97.42311 | 1327 ft | 9 kts | 16° |
| 2026-05-08 00:27 | 37.65866 | -97.42286 | 1327 ft | 9 kts | 20° |
| 2026-05-08 00:27 | 37.65890 | -97.42223 | 1326 ft | 9 kts | 109° |
| 2026-05-08 00:27 | 37.65906 | -97.42160 | 1325 ft | 9 kts | 27° |
| 2026-05-08 00:28 | 37.65978 | -97.42128 | 1324 ft | 12 kts | 20° |
| 2026-05-08 00:28 | 37.66064 | -97.42087 | 1324 ft | 14 kts | 18° |
| 2026-05-08 00:28 | 37.66152 | -97.42040 | 1322 ft | 14 kts | 44° |
| 2026-05-08 00:28 | 37.66191 | -97.41932 | 1322 ft | 13 kts | 91° |
| 2026-05-08 00:29 | 37.66179 | -97.41875 | 1322 ft | 0 kts | 109° |
| 2026-05-08 00:30 | 37.66172 | -97.41849 | 1323 ft | 8 kts | 110° |
| 2026-05-08 00:31 | 37.66147 | -97.41783 | 1324 ft | 7 kts | 155° |
| 2026-05-08 00:31 | 37.66089 | -97.41801 | 1323 ft | 15 kts | 200° |
| 2026-05-08 00:31 | 37.65871 | -97.41901 | 1326 ft | 52 kts | 200° |
| 2026-05-08 00:31 | 37.65588 | -97.42029 | 1327 ft | 74 kts | 199° |
| 2026-05-08 00:32 | 37.65277 | -97.42152 | 1366 ft | 82 kts | 196° |
| 2026-05-08 00:32 | 37.64731 | -97.42392 | 1488 ft | 88 kts | 209° |
| 2026-05-08 00:32 | 37.64180 | -97.42781 | 1663 ft | 93 kts | 207° |
| 2026-05-08 00:32 | 37.63530 | -97.43063 | 1800 ft | 105 kts | 195° |
| 2026-05-08 00:33 | 37.62790 | -97.43325 | 1959 ft | 116 kts | 198° |
| 2026-05-08 00:33 | 37.61987 | -97.43629 | 2128 ft | 125 kts | 198° |
| 2026-05-08 00:33 | 37.61133 | -97.43962 | 2305 ft | 131 kts | 198° |
| 2026-05-08 00:33 | 37.60227 | -97.43958 | 2472 ft | 138 kts | 152° |
| 2026-05-08 00:34 | 37.59729 | -97.42959 | 2647 ft | 142 kts | 97° |
| 2026-05-08 00:34 | 37.59672 | -97.41697 | 2815 ft | 145 kts | 92° |
| 2026-05-08 00:34 | 37.59915 | -97.40475 | 2976 ft | 147 kts | 63° |
| 2026-05-08 00:34 | 37.60376 | -97.39320 | 3149 ft | 148 kts | 63° |
| 2026-05-08 00:35 | 37.60829 | -97.38143 | 3323 ft | 149 kts | 64° |
| 2026-05-08 00:35 | 37.61278 | -97.36956 | 3502 ft | 150 kts | 64° |
| 2026-05-08 00:35 | 37.61734 | -97.35749 | 3676 ft | 151 kts | 64° |
| 2026-05-08 00:35 | 37.62249 | -97.34594 | 3848 ft | 151 kts | 56° |
| 2026-05-08 00:36 | 37.62839 | -97.33461 | 4031 ft | 151 kts | 57° |
| 2026-05-08 00:36 | 37.63359 | -97.32420 | 4193 ft | 151 kts | 57° |
| 2026-05-08 00:36 | 37.63924 | -97.31274 | 4371 ft | 150 kts | 57° |
| 2026-05-08 00:36 | 37.64199 | -97.30712 | 4458 ft | 150 kts | 57° |
| 2026-05-08 00:37 | 37.64747 | -97.29595 | 4627 ft | 149 kts | 57° |
| 2026-05-08 00:37 | 37.65305 | -97.28455 | 4808 ft | 149 kts | 57° |
| 2026-05-08 00:37 | 37.65848 | -97.27346 | 4982 ft | 148 kts | 57° |
| 2026-05-08 00:38 | 37.66743 | -97.25517 | 5268 ft | 145 kts | 57° |
| 2026-05-08 00:38 | 37.67267 | -97.24444 | 5437 ft | 142 kts | 57° |
| 2026-05-08 00:38 | 37.67783 | -97.23390 | 5607 ft | 140 kts | 57° |
| 2026-05-08 00:38 | 37.68295 | -97.22342 | 5779 ft | 138 kts | 57° |
| 2026-05-08 00:39 | 37.68791 | -97.21330 | 5947 ft | 136 kts | 57° |
| 2026-05-08 00:39 | 37.69285 | -97.20318 | 6118 ft | 134 kts | 57° |
| 2026-05-08 00:39 | 37.69773 | -97.19318 | 6289 ft | 133 kts | 57° |
| 2026-05-08 00:39 | 37.70261 | -97.18320 | 6460 ft | 131 kts | 57° |
| 2026-05-08 00:40 | 37.70733 | -97.17352 | 6629 ft | 129 kts | 57° |
| 2026-05-08 00:40 | 37.71198 | -97.16400 | 6767 ft | 129 kts | 57° |
| 2026-05-08 00:40 | 37.71672 | -97.15426 | 6892 ft | 131 kts | 57° |
| 2026-05-08 00:40 | 37.72150 | -97.14446 | 7020 ft | 132 kts | 57° |
| 2026-05-08 00:41 | 37.72632 | -97.13458 | 7143 ft | 132 kts | 57° |
| 2026-05-08 00:41 | 37.73116 | -97.12465 | 7269 ft | 133 kts | 57° |
| 2026-05-08 00:41 | 37.73600 | -97.11471 | 7394 ft | 132 kts | 57° |
| 2026-05-08 00:41 | 37.73917 | -97.10819 | 7474 ft | 131 kts | 57° |
| 2026-05-08 00:42 | 37.74337 | -97.09956 | 7582 ft | 130 kts | 57° |
| 2026-05-08 00:42 | 37.74811 | -97.08983 | 7707 ft | 129 kts | 57° |
| 2026-05-08 00:42 | 37.75279 | -97.08021 | 7826 ft | 128 kts | 57° |
| 2026-05-08 00:42 | 37.75738 | -97.07079 | 7946 ft | 127 kts | 57° |
| 2026-05-08 00:43 | 37.76199 | -97.06131 | 8069 ft | 126 kts | 57° |
| 2026-05-08 00:43 | 37.76657 | -97.05189 | 8187 ft | 125 kts | 57° |
| 2026-05-08 00:43 | 37.77111 | -97.04254 | 8312 ft | 124 kts | 57° |
| 2026-05-08 00:43 | 37.77562 | -97.03328 | 8434 ft | 124 kts | 57° |
| 2026-05-08 00:44 | 37.78011 | -97.02405 | 8554 ft | 124 kts | 57° |
| 2026-05-08 00:44 | 37.78464 | -97.01469 | 8686 ft | 125 kts | 57° |
| 2026-05-08 00:44 | 37.78919 | -97.00533 | 8813 ft | 126 kts | 57° |
| 2026-05-08 00:44 | 37.79378 | -96.99587 | 8940 ft | 126 kts | 57° |
| 2026-05-08 00:45 | 37.79839 | -96.98637 | 9067 ft | 127 kts | 57° |
| 2026-05-08 00:45 | 37.80302 | -96.97684 | 9193 ft | 128 kts | 57° |
| 2026-05-08 00:45 | 37.80766 | -96.96726 | 9320 ft | 128 kts | 57° |
| 2026-05-08 00:45 | 37.81231 | -96.95766 | 9444 ft | 128 kts | 57° |
| 2026-05-08 00:46 | 37.81698 | -96.94803 | 9569 ft | 128 kts | 57° |
| 2026-05-08 00:46 | 37.82163 | -96.93842 | 9695 ft | 128 kts | 57° |
| 2026-05-08 00:46 | 37.82623 | -96.92893 | 9817 ft | 128 kts | 57° |
| 2026-05-08 00:46 | 37.83088 | -96.91933 | 9941 ft | 128 kts | 57° |
| 2026-05-08 00:47 | 37.83553 | -96.90973 | 10068 ft | 128 kts | 57° |
| 2026-05-08 00:47 | 37.84015 | -96.90017 | 10189 ft | 127 kts | 57° |
| 2026-05-08 00:47 | 37.84478 | -96.89061 | 10309 ft | 127 kts | 57° |
| 2026-05-08 00:47 | 37.84938 | -96.88111 | 10439 ft | 126 kts | 57° |
| 2026-05-08 00:48 | 37.85394 | -96.87166 | 10558 ft | 125 kts | 57° |
| 2026-05-08 00:48 | 37.85849 | -96.86227 | 10680 ft | 125 kts | 57° |
| 2026-05-08 00:48 | 37.86299 | -96.85295 | 10802 ft | 124 kts | 57° |
| 2026-05-08 00:48 | 37.86747 | -96.84367 | 10919 ft | 123 kts | 57° |
| 2026-05-08 00:49 | 37.87194 | -96.83441 | 10992 ft | 126 kts | 58° |
| 2026-05-08 00:49 | 37.87664 | -96.82466 | 11004 ft | 133 kts | 58° |
| 2026-05-08 00:49 | 37.88155 | -96.81448 | 11009 ft | 139 kts | 58° |
| 2026-05-08 00:49 | 37.88647 | -96.80372 | 11004 ft | 144 kts | 67° |
| 2026-05-08 00:50 | 37.88884 | -96.79128 | 11009 ft | 148 kts | 78° |
| 2026-05-08 00:50 | 37.89098 | -96.77839 | 11008 ft | 151 kts | 77° |
| 2026-05-08 00:50 | 37.89326 | -96.76530 | 11010 ft | 153 kts | 77° |
| 2026-05-08 00:50 | 37.89560 | -96.75204 | 11009 ft | 155 kts | 77° |
| 2026-05-08 00:51 | 37.89795 | -96.73882 | 11010 ft | 157 kts | 77° |
| 2026-05-08 00:51 | 37.90036 | -96.72511 | 11009 ft | 158 kts | 77° |
| 2026-05-08 00:51 | 37.90274 | -96.71168 | 11010 ft | 159 kts | 77° |
| 2026-05-08 00:51 | 37.90515 | -96.69799 | 11010 ft | 159 kts | 77° |
| 2026-05-08 00:52 | 37.90756 | -96.68427 | 11009 ft | 160 kts | 77° |
| 2026-05-08 00:52 | 37.90999 | -96.67052 | 11010 ft | 160 kts | 77° |
| 2026-05-08 00:52 | 37.91241 | -96.65676 | 11009 ft | 160 kts | 77° |
| 2026-05-08 00:52 | 37.91484 | -96.64294 | 11009 ft | 161 kts | 77° |
| 2026-05-08 00:53 | 37.91727 | -96.62912 | 11010 ft | 161 kts | 77° |
| 2026-05-08 00:53 | 37.91969 | -96.61530 | 11010 ft | 161 kts | 77° |
| 2026-05-08 00:53 | 37.92212 | -96.60145 | 11009 ft | 161 kts | 77° |
| 2026-05-08 00:53 | 37.92455 | -96.58759 | 11009 ft | 161 kts | 77° |
| 2026-05-08 00:54 | 37.92698 | -96.57375 | 11009 ft | 161 kts | 77° |
| 2026-05-08 00:54 | 37.92944 | -96.55971 | 11009 ft | 161 kts | 77° |
| 2026-05-08 00:54 | 37.93186 | -96.54585 | 11009 ft | 161 kts | 77° |
| 2026-05-08 00:54 | 37.93428 | -96.53199 | 11009 ft | 161 kts | 77° |
| 2026-05-08 00:55 | 37.93671 | -96.51812 | 11009 ft | 161 kts | 77° |
| 2026-05-08 00:55 | 37.93910 | -96.50438 | 11010 ft | 161 kts | 77° |
| 2026-05-08 00:55 | 37.94155 | -96.49039 | 11009 ft | 161 kts | 77° |
| 2026-05-08 00:55 | 37.94396 | -96.47652 | 11009 ft | 161 kts | 77° |
| 2026-05-08 00:56 | 37.94638 | -96.46265 | 11010 ft | 161 kts | 77° |
| 2026-05-08 00:56 | 37.94886 | -96.44840 | 11010 ft | 161 kts | 77° |
| 2026-05-08 00:56 | 37.95127 | -96.43454 | 11010 ft | 161 kts | 77° |
| 2026-05-08 00:56 | 37.95371 | -96.42047 | 11010 ft | 161 kts | 77° |
| 2026-05-08 00:57 | 37.95612 | -96.40663 | 11010 ft | 161 kts | 77° |
| 2026-05-08 00:57 | 37.95853 | -96.39270 | 11010 ft | 161 kts | 77° |
| 2026-05-08 00:57 | 37.96094 | -96.37881 | 11007 ft | 161 kts | 77° |
| 2026-05-08 00:57 | 37.96335 | -96.36493 | 11007 ft | 161 kts | 77° |
| 2026-05-08 00:58 | 37.96579 | -96.35084 | 11007 ft | 161 kts | 77° |
| 2026-05-08 00:58 | 37.96819 | -96.33696 | 11007 ft | 161 kts | 77° |
| 2026-05-08 00:58 | 37.97062 | -96.32287 | 11007 ft | 161 kts | 77° |
| 2026-05-08 00:58 | 37.97302 | -96.30899 | 11007 ft | 161 kts | 77° |
| 2026-05-08 00:59 | 37.97542 | -96.29509 | 11007 ft | 161 kts | 77° |
| 2026-05-08 00:59 | 37.97786 | -96.28095 | 11010 ft | 163 kts | 77° |
| 2026-05-08 00:59 | 37.98030 | -96.26676 | 11010 ft | 166 kts | 77° |
| 2026-05-08 00:59 | 37.98277 | -96.25242 | 11007 ft | 168 kts | 77° |
| 2026-05-08 01:00 | 37.98530 | -96.23773 | 11008 ft | 169 kts | 77° |
| 2026-05-08 01:00 | 37.98780 | -96.22316 | 11008 ft | 170 kts | 77° |
| 2026-05-08 01:00 | 37.99036 | -96.20828 | 11010 ft | 170 kts | 77° |
| 2026-05-08 01:00 | 37.99206 | -96.19835 | 11008 ft | 171 kts | 77° |
| 2026-05-08 01:01 | 37.99460 | -96.18362 | 11009 ft | 171 kts | 77° |
| 2026-05-08 01:01 | 37.99716 | -96.16866 | 11008 ft | 172 kts | 77° |
| 2026-05-08 01:01 | 37.99969 | -96.15386 | 11009 ft | 172 kts | 77° |
| 2026-05-08 01:01 | 38.00223 | -96.13907 | 11010 ft | 172 kts | 77° |
| 2026-05-08 01:02 | 38.00476 | -96.12423 | 11010 ft | 172 kts | 77° |
| 2026-05-08 01:02 | 38.00730 | -96.10939 | 11009 ft | 172 kts | 77° |
| 2026-05-08 01:02 | 38.00983 | -96.09454 | 11009 ft | 172 kts | 77° |
| 2026-05-08 01:02 | 38.01236 | -96.07971 | 11009 ft | 172 kts | 77° |
| 2026-05-08 01:03 | 38.01490 | -96.06484 | 11009 ft | 172 kts | 77° |
| 2026-05-08 01:03 | 38.01743 | -96.04999 | 11009 ft | 172 kts | 77° |
| 2026-05-08 01:03 | 38.01996 | -96.03511 | 11009 ft | 172 kts | 77° |
| 2026-05-08 01:03 | 38.02249 | -96.02024 | 11009 ft | 172 kts | 77° |
| 2026-05-08 01:04 | 38.02501 | -96.00539 | 11010 ft | 172 kts | 77° |
| 2026-05-08 01:04 | 38.02754 | -95.99049 | 11010 ft | 173 kts | 77° |
| 2026-05-08 01:04 | 38.03007 | -95.97562 | 11010 ft | 173 kts | 77° |
| 2026-05-08 01:04 | 38.03259 | -95.96071 | 11010 ft | 173 kts | 77° |
| 2026-05-08 01:05 | 38.03508 | -95.94603 | 11010 ft | 173 kts | 77° |
| 2026-05-08 01:05 | 38.03760 | -95.93115 | 11010 ft | 173 kts | 77° |
| 2026-05-08 01:05 | 38.04011 | -95.91626 | 11010 ft | 173 kts | 77° |
| 2026-05-08 01:05 | 38.04266 | -95.90119 | 11010 ft | 172 kts | 77° |
| 2026-05-08 01:06 | 38.04517 | -95.88633 | 11010 ft | 172 kts | 77° |
| 2026-05-08 01:06 | 38.04765 | -95.87163 | 11010 ft | 172 kts | 77° |
| 2026-05-08 01:06 | 38.05019 | -95.85656 | 11010 ft | 172 kts | 77° |
| 2026-05-08 01:06 | 38.05267 | -95.84186 | 11010 ft | 172 kts | 77° |
| 2026-05-08 01:07 | 38.05517 | -95.82698 | 11010 ft | 172 kts | 77° |
| 2026-05-08 01:07 | 38.05767 | -95.81211 | 11010 ft | 172 kts | 77° |
| 2026-05-08 01:07 | 38.06017 | -95.79722 | 11010 ft | 172 kts | 77° |
| 2026-05-08 01:07 | 38.06270 | -95.78216 | 11009 ft | 172 kts | 78° |
| 2026-05-08 01:08 | 38.06523 | -95.76706 | 11010 ft | 172 kts | 77° |
| 2026-05-08 01:08 | 38.06772 | -95.75221 | 11010 ft | 172 kts | 78° |
| 2026-05-08 01:08 | 38.07022 | -95.73730 | 11010 ft | 172 kts | 77° |
| 2026-05-08 01:08 | 38.07274 | -95.72222 | 11003 ft | 173 kts | 77° |
| 2026-05-08 01:09 | 38.07523 | -95.70732 | 11003 ft | 173 kts | 78° |
| 2026-05-08 01:09 | 38.07773 | -95.69239 | 11003 ft | 173 kts | 77° |
| 2026-05-08 01:09 | 38.08024 | -95.67731 | 11003 ft | 172 kts | 78° |
| 2026-05-08 01:09 | 38.08280 | -95.66200 | 11003 ft | 172 kts | 78° |
| 2026-05-08 01:10 | 38.08527 | -95.64712 | 11003 ft | 172 kts | 78° |
| 2026-05-08 01:10 | 38.08779 | -95.63201 | 11003 ft | 172 kts | 78° |
| 2026-05-08 01:10 | 38.09027 | -95.61711 | 11003 ft | 172 kts | 78° |
| 2026-05-08 01:10 | 38.09274 | -95.60224 | 11003 ft | 172 kts | 78° |
| 2026-05-08 01:11 | 38.09522 | -95.58733 | 11003 ft | 172 kts | 78° |
| 2026-05-08 01:11 | 38.09772 | -95.57224 | 11003 ft | 172 kts | 78° |
| 2026-05-08 01:11 | 38.10022 | -95.55712 | 11003 ft | 172 kts | 78° |
| 2026-05-08 01:11 | 38.10273 | -95.54199 | 11003 ft | 172 kts | 78° |
| 2026-05-08 01:12 | 38.10526 | -95.52673 | 11003 ft | 172 kts | 78° |
| 2026-05-08 01:12 | 38.10773 | -95.51178 | 11003 ft | 172 kts | 78° |
| 2026-05-08 01:12 | 38.11023 | -95.49664 | 11003 ft | 172 kts | 78° |
| 2026-05-08 01:12 | 38.11269 | -95.48176 | 11003 ft | 172 kts | 78° |
| 2026-05-08 01:13 | 38.11515 | -95.46684 | 11003 ft | 172 kts | 78° |
| 2026-05-08 01:13 | 38.11761 | -95.45192 | 11003 ft | 172 kts | 78° |
| 2026-05-08 01:13 | 38.12006 | -95.43704 | 11003 ft | 172 kts | 78° |
| 2026-05-08 01:13 | 38.12172 | -95.42694 | 11003 ft | 172 kts | 78° |
| 2026-05-08 01:14 | 38.12421 | -95.41181 | 11003 ft | 172 kts | 78° |
| 2026-05-08 01:14 | 38.12666 | -95.39692 | 11003 ft | 172 kts | 78° |
| 2026-05-08 01:14 | 38.12910 | -95.38204 | 11003 ft | 172 kts | 78° |
| 2026-05-08 01:14 | 38.13154 | -95.36713 | 11003 ft | 172 kts | 78° |
| 2026-05-08 01:15 | 38.13399 | -95.35222 | 11002 ft | 172 kts | 78° |
| 2026-05-08 01:15 | 38.13644 | -95.33724 | 10938 ft | 176 kts | 78° |
| 2026-05-08 01:15 | 38.13899 | -95.32168 | 10898 ft | 177 kts | 78° |
| 2026-05-08 01:15 | 38.14151 | -95.30626 | 10856 ft | 178 kts | 78° |
| 2026-05-08 01:16 | 38.14403 | -95.29081 | 10809 ft | 179 kts | 78° |
| 2026-05-08 01:16 | 38.14657 | -95.27525 | 10760 ft | 180 kts | 78° |
| 2026-05-08 01:16 | 38.14908 | -95.25981 | 10820 ft | 174 kts | 78° |
| 2026-05-08 01:16 | 38.15149 | -95.24507 | 10938 ft | 167 kts | 78° |
| 2026-05-08 01:17 | 38.15386 | -95.23056 | 10989 ft | 165 kts | 78° |
| 2026-05-08 01:17 | 38.15622 | -95.21596 | 10992 ft | 167 kts | 78° |
| 2026-05-08 01:17 | 38.15860 | -95.20136 | 10965 ft | 170 kts | 78° |
| 2026-05-08 01:17 | 38.16100 | -95.18655 | 10966 ft | 171 kts | 78° |
| 2026-05-08 01:18 | 38.16341 | -95.17173 | 10967 ft | 171 kts | 78° |
| 2026-05-08 01:18 | 38.16582 | -95.15687 | 10966 ft | 172 kts | 78° |
| 2026-05-08 01:18 | 38.16822 | -95.14202 | 10966 ft | 172 kts | 78° |
| 2026-05-08 01:18 | 38.17063 | -95.12714 | 10967 ft | 172 kts | 78° |
| 2026-05-08 01:19 | 38.17307 | -95.11204 | 10965 ft | 172 kts | 78° |
| 2026-05-08 01:19 | 38.17545 | -95.09727 | 10966 ft | 172 kts | 78° |
| 2026-05-08 01:19 | 38.17786 | -95.08237 | 10966 ft | 172 kts | 78° |
| 2026-05-08 01:19 | 38.18027 | -95.06745 | 10966 ft | 172 kts | 78° |
| 2026-05-08 01:20 | 38.18267 | -95.05253 | 10966 ft | 172 kts | 78° |
| 2026-05-08 01:20 | 38.18508 | -95.03760 | 10966 ft | 172 kts | 78° |
| 2026-05-08 01:20 | 38.18747 | -95.02269 | 10966 ft | 172 kts | 78° |
| 2026-05-08 01:20 | 38.18987 | -95.00775 | 10966 ft | 172 kts | 78° |
| 2026-05-08 01:21 | 38.19227 | -94.99282 | 10966 ft | 172 kts | 78° |
| 2026-05-08 01:21 | 38.19466 | -94.97790 | 10966 ft | 172 kts | 78° |
| 2026-05-08 01:21 | 38.19706 | -94.96298 | 10967 ft | 172 kts | 78° |
| 2026-05-08 01:21 | 38.19945 | -94.94804 | 10967 ft | 172 kts | 78° |
| 2026-05-08 01:22 | 38.20185 | -94.93310 | 10967 ft | 172 kts | 78° |
| 2026-05-08 01:22 | 38.20423 | -94.91816 | 10967 ft | 172 kts | 78° |
| 2026-05-08 01:22 | 38.20662 | -94.90322 | 10967 ft | 172 kts | 78° |
| 2026-05-08 01:22 | 38.20900 | -94.88828 | 10966 ft | 172 kts | 78° |
| 2026-05-08 01:23 | 38.21138 | -94.87334 | 10967 ft | 172 kts | 78° |
| 2026-05-08 01:23 | 38.21376 | -94.85842 | 10967 ft | 172 kts | 78° |
| 2026-05-08 01:23 | 38.21615 | -94.84346 | 10967 ft | 172 kts | 78° |
| 2026-05-08 01:23 | 38.21852 | -94.82852 | 10967 ft | 172 kts | 78° |
| 2026-05-08 01:24 | 38.22090 | -94.81357 | 10967 ft | 172 kts | 78° |
| 2026-05-08 01:24 | 38.22327 | -94.79861 | 10967 ft | 172 kts | 78° |
| 2026-05-08 01:24 | 38.22565 | -94.78367 | 10967 ft | 172 kts | 78° |
| 2026-05-08 01:24 | 38.22802 | -94.76870 | 10967 ft | 172 kts | 78° |
| 2026-05-08 01:25 | 38.23042 | -94.75354 | 10967 ft | 172 kts | 78° |
| 2026-05-08 01:25 | 38.23284 | -94.73821 | 10966 ft | 173 kts | 78° |
| 2026-05-08 01:25 | 38.23525 | -94.72301 | 10966 ft | 172 kts | 78° |
| 2026-05-08 01:25 | 38.23767 | -94.70765 | 10966 ft | 172 kts | 78° |
| 2026-05-08 01:26 | 38.23998 | -94.69306 | 10966 ft | 172 kts | 78° |
| 2026-05-08 01:26 | 38.24240 | -94.67770 | 10966 ft | 172 kts | 78° |
| 2026-05-08 01:26 | 38.24400 | -94.66755 | 10966 ft | 172 kts | 78° |
| 2026-05-08 01:26 | 38.24561 | -94.65734 | 10966 ft | 172 kts | 78° |
| 2026-05-08 01:27 | 38.24774 | -94.64376 | 10966 ft | 172 kts | 78° |
| 2026-05-08 01:27 | 38.24988 | -94.63020 | 10966 ft | 172 kts | 78° |
| 2026-05-08 01:27 | 38.25228 | -94.61488 | 10966 ft | 172 kts | 78° |
| 2026-05-08 01:27 | 38.25470 | -94.59946 | 10966 ft | 172 kts | 78° |
| 2026-05-08 01:28 | 38.25714 | -94.58394 | 10966 ft | 172 kts | 78° |
| 2026-05-08 01:28 | 38.25952 | -94.56873 | 10966 ft | 172 kts | 78° |
| 2026-05-08 01:28 | 38.26190 | -94.55355 | 10966 ft | 172 kts | 78° |
| 2026-05-08 01:28 | 38.26430 | -94.53818 | 10966 ft | 172 kts | 78° |
| 2026-05-08 01:29 | 38.26668 | -94.52295 | 10966 ft | 172 kts | 78° |
| 2026-05-08 01:29 | 38.26902 | -94.50798 | 10966 ft | 172 kts | 78° |
| 2026-05-08 01:29 | 38.27136 | -94.49301 | 10966 ft | 172 kts | 78° |
| 2026-05-08 01:29 | 38.27373 | -94.47805 | 10966 ft | 172 kts | 78° |
| 2026-05-08 01:30 | 38.27623 | -94.46312 | 10966 ft | 172 kts | 77° |
| 2026-05-08 01:30 | 38.27872 | -94.44821 | 10966 ft | 172 kts | 78° |
| 2026-05-08 01:30 | 38.28118 | -94.43329 | 10966 ft | 172 kts | 78° |
| 2026-05-08 01:30 | 38.28364 | -94.41837 | 10966 ft | 172 kts | 78° |
| 2026-05-08 01:31 | 38.28611 | -94.40342 | 10966 ft | 172 kts | 78° |
| 2026-05-08 01:31 | 38.28856 | -94.38847 | 10966 ft | 172 kts | 78° |
| 2026-05-08 01:31 | 38.29100 | -94.37367 | 10966 ft | 172 kts | 78° |
| 2026-05-08 01:31 | 38.29346 | -94.35872 | 10966 ft | 172 kts | 78° |
| 2026-05-08 01:32 | 38.29591 | -94.34381 | 10966 ft | 172 kts | 78° |
| 2026-05-08 01:32 | 38.29836 | -94.32883 | 10966 ft | 172 kts | 78° |
| 2026-05-08 01:32 | 38.30081 | -94.31389 | 10966 ft | 172 kts | 78° |
| 2026-05-08 01:32 | 38.30326 | -94.29896 | 10966 ft | 172 kts | 78° |
| 2026-05-08 01:33 | 38.30570 | -94.28404 | 10966 ft | 172 kts | 78° |
| 2026-05-08 01:33 | 38.30815 | -94.26910 | 10966 ft | 172 kts | 78° |
| 2026-05-08 01:33 | 38.31059 | -94.25414 | 10966 ft | 172 kts | 78° |
| 2026-05-08 01:33 | 38.31303 | -94.23921 | 10966 ft | 172 kts | 78° |
| 2026-05-08 01:34 | 38.31547 | -94.22427 | 10966 ft | 172 kts | 78° |
| 2026-05-08 01:34 | 38.31787 | -94.20951 | 10966 ft | 172 kts | 78° |
| 2026-05-08 01:34 | 38.32031 | -94.19457 | 10966 ft | 172 kts | 78° |
| 2026-05-08 01:34 | 38.32273 | -94.17964 | 10966 ft | 172 kts | 78° |
| 2026-05-08 01:35 | 38.32516 | -94.16470 | 10966 ft | 172 kts | 78° |
| 2026-05-08 01:35 | 38.32760 | -94.14974 | 10966 ft | 172 kts | 78° |
| 2026-05-08 01:35 | 38.33002 | -94.13479 | 10966 ft | 172 kts | 78° |
| 2026-05-08 01:35 | 38.33244 | -94.11984 | 10966 ft | 172 kts | 78° |
| 2026-05-08 01:36 | 38.33487 | -94.10489 | 10966 ft | 172 kts | 78° |
| 2026-05-08 01:36 | 38.33728 | -94.08995 | 10966 ft | 172 kts | 78° |
| 2026-05-08 01:36 | 38.33971 | -94.07498 | 10966 ft | 172 kts | 78° |
| 2026-05-08 01:36 | 38.34213 | -94.06002 | 10966 ft | 172 kts | 78° |
| 2026-05-08 01:37 | 38.34454 | -94.04508 | 10966 ft | 172 kts | 78° |
| 2026-05-08 01:37 | 38.34696 | -94.03010 | 10966 ft | 172 kts | 78° |
| 2026-05-08 01:37 | 38.34936 | -94.01516 | 10966 ft | 172 kts | 78° |
| 2026-05-08 01:37 | 38.35177 | -94.00020 | 10966 ft | 172 kts | 78° |
| 2026-05-08 01:38 | 38.35418 | -93.98524 | 10966 ft | 172 kts | 78° |
| 2026-05-08 01:38 | 38.35659 | -93.97028 | 10966 ft | 172 kts | 78° |
| 2026-05-08 01:38 | 38.35899 | -93.95532 | 10966 ft | 172 kts | 78° |
| 2026-05-08 01:38 | 38.36139 | -93.94036 | 10966 ft | 172 kts | 78° |
| 2026-05-08 01:39 | 38.36379 | -93.92538 | 10966 ft | 172 kts | 78° |
| 2026-05-08 01:39 | 38.36619 | -93.91042 | 10966 ft | 172 kts | 78° |
| 2026-05-08 01:39 | 38.36858 | -93.89547 | 10966 ft | 172 kts | 78° |
| 2026-05-08 01:39 | 38.37098 | -93.88053 | 10966 ft | 172 kts | 78° |
| 2026-05-08 01:40 | 38.37337 | -93.86553 | 10966 ft | 172 kts | 78° |
| 2026-05-08 01:40 | 38.37573 | -93.85076 | 10966 ft | 172 kts | 78° |
| 2026-05-08 01:40 | 38.37816 | -93.83558 | 10966 ft | 172 kts | 78° |
| 2026-05-08 01:40 | 38.38054 | -93.82062 | 10966 ft | 172 kts | 78° |
| 2026-05-08 01:41 | 38.38292 | -93.80565 | 10966 ft | 172 kts | 78° |
| 2026-05-08 01:41 | 38.38531 | -93.79069 | 10966 ft | 172 kts | 78° |
| 2026-05-08 01:41 | 38.38768 | -93.77573 | 10966 ft | 172 kts | 78° |
| 2026-05-08 01:41 | 38.39006 | -93.76076 | 10966 ft | 172 kts | 78° |
| 2026-05-08 01:42 | 38.39244 | -93.74580 | 10966 ft | 172 kts | 78° |
| 2026-05-08 01:42 | 38.39481 | -93.73082 | 10966 ft | 172 kts | 78° |
| 2026-05-08 01:42 | 38.39718 | -93.71585 | 10966 ft | 172 kts | 78° |
| 2026-05-08 01:42 | 38.39955 | -93.70090 | 10966 ft | 172 kts | 78° |
| 2026-05-08 01:43 | 38.40192 | -93.68592 | 10966 ft | 172 kts | 78° |
| 2026-05-08 01:43 | 38.40349 | -93.67601 | 10966 ft | 172 kts | 78° |
| 2026-05-08 01:43 | 38.40585 | -93.66101 | 10966 ft | 172 kts | 78° |
| 2026-05-08 01:43 | 38.40822 | -93.64604 | 10966 ft | 172 kts | 78° |
| 2026-05-08 01:44 | 38.41135 | -93.62619 | 10966 ft | 172 kts | 78° |
| 2026-05-08 01:44 | 38.41294 | -93.61608 | 10966 ft | 172 kts | 78° |
| 2026-05-08 01:44 | 38.41529 | -93.60117 | 10990 ft | 171 kts | 78° |
| 2026-05-08 01:44 | 38.41762 | -93.58632 | 10991 ft | 171 kts | 78° |
| 2026-05-08 01:45 | 38.41997 | -93.57141 | 10993 ft | 171 kts | 78° |
| 2026-05-08 01:45 | 38.42231 | -93.55646 | 10993 ft | 172 kts | 78° |
| 2026-05-08 01:45 | 38.42465 | -93.54153 | 10990 ft | 172 kts | 78° |
| 2026-05-08 01:45 | 38.42700 | -93.52657 | 10994 ft | 172 kts | 78° |
| 2026-05-08 01:46 | 38.42934 | -93.51161 | 10994 ft | 172 kts | 78° |
| 2026-05-08 01:46 | 38.43168 | -93.49664 | 10994 ft | 172 kts | 78° |
| 2026-05-08 01:46 | 38.43403 | -93.48165 | 10992 ft | 172 kts | 78° |
| 2026-05-08 01:46 | 38.43637 | -93.46667 | 10994 ft | 172 kts | 78° |
| 2026-05-08 01:47 | 38.43870 | -93.45168 | 10994 ft | 172 kts | 78° |
| 2026-05-08 01:47 | 38.44104 | -93.43670 | 10994 ft | 172 kts | 78° |
| 2026-05-08 01:47 | 38.44335 | -93.42190 | 10994 ft | 172 kts | 78° |
| 2026-05-08 01:48 | 38.44801 | -93.39191 | 10994 ft | 172 kts | 78° |
| 2026-05-08 01:48 | 38.45034 | -93.37693 | 10994 ft | 172 kts | 78° |
| 2026-05-08 01:48 | 38.45266 | -93.36195 | 10994 ft | 172 kts | 78° |
| 2026-05-08 01:48 | 38.45499 | -93.34694 | 10994 ft | 172 kts | 78° |
| 2026-05-08 01:49 | 38.45731 | -93.33194 | 10994 ft | 172 kts | 78° |
| 2026-05-08 01:49 | 38.45964 | -93.31695 | 10987 ft | 172 kts | 78° |
| 2026-05-08 01:49 | 38.46195 | -93.30197 | 10992 ft | 172 kts | 78° |
| 2026-05-08 01:49 | 38.46427 | -93.28697 | 10993 ft | 172 kts | 78° |
| 2026-05-08 01:50 | 38.46659 | -93.27195 | 10994 ft | 172 kts | 78° |
| 2026-05-08 01:50 | 38.46890 | -93.25694 | 10994 ft | 172 kts | 78° |
| 2026-05-08 01:50 | 38.47122 | -93.24195 | 10994 ft | 172 kts | 78° |
| 2026-05-08 01:50 | 38.47352 | -93.22693 | 10994 ft | 172 kts | 78° |
| 2026-05-08 01:51 | 38.47584 | -93.21193 | 10994 ft | 172 kts | 78° |
| 2026-05-08 01:51 | 38.47814 | -93.19692 | 10994 ft | 172 kts | 78° |
| 2026-05-08 01:51 | 38.48044 | -93.18191 | 10994 ft | 172 kts | 78° |
| 2026-05-08 01:51 | 38.48275 | -93.16691 | 10994 ft | 172 kts | 78° |
| 2026-05-08 01:52 | 38.48505 | -93.15187 | 10994 ft | 172 kts | 78° |
| 2026-05-08 01:52 | 38.48735 | -93.13687 | 10994 ft | 172 kts | 78° |
| 2026-05-08 01:52 | 38.48965 | -93.12183 | 10994 ft | 172 kts | 78° |
| 2026-05-08 01:52 | 38.49194 | -93.10682 | 10994 ft | 172 kts | 78° |
| 2026-05-08 01:53 | 38.49424 | -93.09179 | 10994 ft | 172 kts | 78° |
| 2026-05-08 01:53 | 38.49653 | -93.07678 | 10993 ft | 172 kts | 78° |
| 2026-05-08 01:53 | 38.49882 | -93.06177 | 10992 ft | 172 kts | 78° |
| 2026-05-08 01:53 | 38.50111 | -93.04674 | 10992 ft | 172 kts | 78° |
| 2026-05-08 01:54 | 38.50340 | -93.03170 | 10995 ft | 172 kts | 78° |
| 2026-05-08 01:54 | 38.50568 | -93.01668 | 10995 ft | 172 kts | 78° |
| 2026-05-08 01:54 | 38.50797 | -93.00164 | 10995 ft | 172 kts | 78° |
| 2026-05-08 01:54 | 38.51022 | -92.98679 | 10995 ft | 172 kts | 79° |
| 2026-05-08 01:55 | 38.51250 | -92.97176 | 10993 ft | 172 kts | 78° |
| 2026-05-08 01:55 | 38.51478 | -92.95672 | 10993 ft | 172 kts | 79° |
| 2026-05-08 01:55 | 38.51706 | -92.94169 | 10995 ft | 172 kts | 79° |
| 2026-05-08 01:55 | 38.51933 | -92.92663 | 10995 ft | 172 kts | 79° |
| 2026-05-08 01:56 | 38.52160 | -92.91160 | 10995 ft | 172 kts | 79° |
| 2026-05-08 01:56 | 38.52387 | -92.89656 | 10995 ft | 173 kts | 79° |
| 2026-05-08 01:56 | 38.52615 | -92.88147 | 10991 ft | 173 kts | 79° |
| 2026-05-08 01:56 | 38.52841 | -92.86645 | 10995 ft | 173 kts | 79° |
| 2026-05-08 01:57 | 38.53068 | -92.85138 | 10995 ft | 172 kts | 79° |
| 2026-05-08 01:57 | 38.53295 | -92.83634 | 10993 ft | 172 kts | 79° |
| 2026-05-08 01:57 | 38.53520 | -92.82130 | 10995 ft | 172 kts | 79° |
| 2026-05-08 01:57 | 38.53746 | -92.80625 | 10995 ft | 172 kts | 79° |
| 2026-05-08 01:58 | 38.53972 | -92.79121 | 10993 ft | 172 kts | 79° |
| 2026-05-08 01:58 | 38.54194 | -92.77635 | 10995 ft | 172 kts | 79° |
| 2026-05-08 01:58 | 38.54423 | -92.76112 | 10995 ft | 172 kts | 79° |
| 2026-05-08 01:58 | 38.54648 | -92.74606 | 10995 ft | 172 kts | 79° |
| 2026-05-08 01:59 | 38.54873 | -92.73101 | 10995 ft | 172 kts | 79° |
| 2026-05-08 01:59 | 38.55095 | -92.71615 | 10991 ft | 172 kts | 79° |
| 2026-05-08 01:59 | 38.55319 | -92.70110 | 10995 ft | 172 kts | 79° |
| 2026-05-08 01:59 | 38.55544 | -92.68604 | 10995 ft | 173 kts | 79° |
| 2026-05-08 02:00 | 38.55767 | -92.67101 | 10995 ft | 173 kts | 79° |
| 2026-05-08 02:00 | 38.55992 | -92.65591 | 10995 ft | 173 kts | 79° |
| 2026-05-08 02:00 | 38.56219 | -92.64064 | 10995 ft | 173 kts | 79° |
| 2026-05-08 02:00 | 38.56443 | -92.62554 | 10995 ft | 173 kts | 79° |
| 2026-05-08 02:01 | 38.56667 | -92.61048 | 10995 ft | 173 kts | 79° |
| 2026-05-08 02:01 | 38.56889 | -92.59542 | 10995 ft | 173 kts | 79° |
| 2026-05-08 02:01 | 38.57112 | -92.58038 | 10995 ft | 173 kts | 79° |
| 2026-05-08 02:01 | 38.57336 | -92.56529 | 10995 ft | 173 kts | 79° |
| 2026-05-08 02:02 | 38.57558 | -92.55023 | 10995 ft | 173 kts | 79° |
| 2026-05-08 02:02 | 38.57781 | -92.53515 | 10995 ft | 173 kts | 79° |
| 2026-05-08 02:02 | 38.58003 | -92.52006 | 10993 ft | 173 kts | 79° |
| 2026-05-08 02:02 | 38.58225 | -92.50499 | 10995 ft | 173 kts | 79° |
| 2026-05-08 02:03 | 38.58448 | -92.48990 | 10995 ft | 173 kts | 79° |
| 2026-05-08 02:03 | 38.58669 | -92.47482 | 10995 ft | 173 kts | 79° |
| 2026-05-08 02:03 | 38.58891 | -92.45976 | 10995 ft | 173 kts | 79° |
| 2026-05-08 02:03 | 38.59112 | -92.44468 | 10995 ft | 173 kts | 79° |
| 2026-05-08 02:04 | 38.59331 | -92.42979 | 10995 ft | 173 kts | 79° |
| 2026-05-08 02:04 | 38.59552 | -92.41472 | 10995 ft | 173 kts | 79° |
| 2026-05-08 02:04 | 38.59772 | -92.39963 | 10992 ft | 173 kts | 79° |
| 2026-05-08 02:04 | 38.59993 | -92.38453 | 10995 ft | 173 kts | 79° |
| 2026-05-08 02:05 | 38.60214 | -92.36946 | 10995 ft | 173 kts | 79° |
| 2026-05-08 02:05 | 38.60433 | -92.35439 | 10993 ft | 173 kts | 79° |
| 2026-05-08 02:05 | 38.60654 | -92.33930 | 10995 ft | 173 kts | 79° |
| 2026-05-08 02:05 | 38.60874 | -92.32421 | 10995 ft | 173 kts | 79° |
| 2026-05-08 02:06 | 38.61094 | -92.30909 | 10995 ft | 173 kts | 79° |
| 2026-05-08 02:06 | 38.61313 | -92.29400 | 10993 ft | 173 kts | 79° |
| 2026-05-08 02:06 | 38.61532 | -92.27891 | 10995 ft | 173 kts | 79° |
| 2026-05-08 02:06 | 38.61752 | -92.26382 | 10995 ft | 173 kts | 79° |
| 2026-05-08 02:07 | 38.61896 | -92.25383 | 10995 ft | 173 kts | 79° |
| 2026-05-08 02:07 | 38.62190 | -92.23362 | 10991 ft | 173 kts | 79° |
| 2026-05-08 02:07 | 38.62408 | -92.21852 | 10993 ft | 173 kts | 79° |
| 2026-05-08 02:07 | 38.62626 | -92.20344 | 10996 ft | 173 kts | 79° |
| 2026-05-08 02:08 | 38.62845 | -92.18833 | 10996 ft | 173 kts | 79° |
| 2026-05-08 02:08 | 38.63063 | -92.17319 | 10996 ft | 173 kts | 79° |
| 2026-05-08 02:08 | 38.63281 | -92.15805 | 10996 ft | 173 kts | 79° |
| 2026-05-08 02:08 | 38.63499 | -92.14294 | 10996 ft | 173 kts | 79° |
| 2026-05-08 02:09 | 38.63717 | -92.12782 | 10991 ft | 173 kts | 79° |
| 2026-05-08 02:09 | 38.63934 | -92.11270 | 10992 ft | 173 kts | 79° |
| 2026-05-08 02:09 | 38.64151 | -92.09760 | 10993 ft | 173 kts | 79° |
| 2026-05-08 02:09 | 38.64366 | -92.08267 | 10993 ft | 173 kts | 79° |
| 2026-05-08 02:10 | 38.64582 | -92.06756 | 10994 ft | 173 kts | 79° |
| 2026-05-08 02:10 | 38.64799 | -92.05244 | 10995 ft | 173 kts | 79° |
| 2026-05-08 02:10 | 38.65015 | -92.03732 | 10996 ft | 173 kts | 79° |
| 2026-05-08 02:10 | 38.65231 | -92.02221 | 10993 ft | 173 kts | 79° |
| 2026-05-08 02:11 | 38.65447 | -92.00712 | 10993 ft | 173 kts | 79° |
| 2026-05-08 02:11 | 38.65663 | -91.99198 | 10996 ft | 173 kts | 79° |
| 2026-05-08 02:11 | 38.65879 | -91.97685 | 10996 ft | 173 kts | 79° |
| 2026-05-08 02:11 | 38.66094 | -91.96172 | 10993 ft | 173 kts | 79° |
| 2026-05-08 02:12 | 38.66309 | -91.94661 | 10993 ft | 173 kts | 79° |
| 2026-05-08 02:12 | 38.66524 | -91.93149 | 10993 ft | 173 kts | 79° |
| 2026-05-08 02:12 | 38.66739 | -91.91636 | 10989 ft | 173 kts | 79° |
| 2026-05-08 02:12 | 38.66954 | -91.90120 | 10996 ft | 173 kts | 79° |
| 2026-05-08 02:13 | 38.67168 | -91.88611 | 10996 ft | 173 kts | 79° |
| 2026-05-08 02:13 | 38.67391 | -91.87035 | 10996 ft | 173 kts | 79° |
| 2026-05-08 02:13 | 38.67610 | -91.85492 | 10996 ft | 173 kts | 79° |
| 2026-05-08 02:13 | 38.67822 | -91.83985 | 10996 ft | 173 kts | 79° |
| 2026-05-08 02:14 | 38.68039 | -91.82452 | 10996 ft | 173 kts | 79° |
| 2026-05-08 02:14 | 38.68252 | -91.80940 | 10992 ft | 173 kts | 79° |
| 2026-05-08 02:14 | 38.68467 | -91.79416 | 10991 ft | 173 kts | 79° |
| 2026-05-08 02:14 | 38.68680 | -91.77903 | 10996 ft | 173 kts | 79° |
| 2026-05-08 02:15 | 38.68824 | -91.76879 | 10996 ft | 173 kts | 79° |
| 2026-05-08 02:15 | 38.69040 | -91.75346 | 10996 ft | 173 kts | 79° |
| 2026-05-08 02:15 | 38.69205 | -91.73821 | 10992 ft | 172 kts | 89° |
| 2026-05-08 02:15 | 38.69202 | -91.72281 | 10993 ft | 172 kts | 90° |
| 2026-05-08 02:16 | 38.69211 | -91.70726 | 10993 ft | 172 kts | 89° |
| 2026-05-08 02:16 | 38.69222 | -91.69185 | 10993 ft | 173 kts | 89° |
| 2026-05-08 02:16 | 38.69232 | -91.67648 | 10994 ft | 173 kts | 89° |
| 2026-05-08 02:16 | 38.69241 | -91.66140 | 10994 ft | 173 kts | 89° |
| 2026-05-08 02:17 | 38.69250 | -91.64582 | 10994 ft | 173 kts | 89° |
| 2026-05-08 02:17 | 38.69258 | -91.63023 | 10994 ft | 173 kts | 89° |
| 2026-05-08 02:17 | 38.69267 | -91.61486 | 10994 ft | 173 kts | 89° |
| 2026-05-08 02:17 | 38.69275 | -91.59948 | 10994 ft | 173 kts | 89° |
| 2026-05-08 02:18 | 38.69283 | -91.58410 | 10994 ft | 173 kts | 89° |
| 2026-05-08 02:18 | 38.69291 | -91.56847 | 10994 ft | 173 kts | 89° |
| 2026-05-08 02:18 | 38.69298 | -91.55308 | 10994 ft | 173 kts | 89° |
| 2026-05-08 02:18 | 38.69306 | -91.53771 | 10994 ft | 173 kts | 89° |
| 2026-05-08 02:19 | 38.69312 | -91.52224 | 10994 ft | 173 kts | 89° |
| 2026-05-08 02:19 | 38.69320 | -91.50692 | 10994 ft | 173 kts | 89° |
| 2026-05-08 02:19 | 38.69326 | -91.49130 | 10994 ft | 173 kts | 89° |
| 2026-05-08 02:19 | 38.69333 | -91.47555 | 10995 ft | 173 kts | 89° |
| 2026-05-08 02:20 | 38.69339 | -91.46008 | 10994 ft | 173 kts | 89° |
| 2026-05-08 02:20 | 38.69345 | -91.44467 | 10994 ft | 173 kts | 89° |
| 2026-05-08 02:20 | 38.69351 | -91.42923 | 10994 ft | 173 kts | 90° |
| 2026-05-08 02:20 | 38.69357 | -91.41384 | 10994 ft | 173 kts | 89° |
| 2026-05-08 02:21 | 38.69362 | -91.39840 | 10994 ft | 173 kts | 89° |
| 2026-05-08 02:21 | 38.69368 | -91.38300 | 10994 ft | 173 kts | 90° |
| 2026-05-08 02:21 | 38.69373 | -91.36755 | 10994 ft | 173 kts | 89° |
| 2026-05-08 02:21 | 38.69377 | -91.35216 | 10994 ft | 173 kts | 90° |
| 2026-05-08 02:22 | 38.69382 | -91.33697 | 10994 ft | 173 kts | 90° |
| 2026-05-08 02:22 | 38.69386 | -91.32155 | 10994 ft | 173 kts | 90° |
| 2026-05-08 02:22 | 38.69391 | -91.30611 | 10994 ft | 173 kts | 90° |
| 2026-05-08 02:22 | 38.69395 | -91.29073 | 10994 ft | 173 kts | 90° |
| 2026-05-08 02:23 | 38.69399 | -91.27530 | 10994 ft | 173 kts | 90° |
| 2026-05-08 02:23 | 38.69403 | -91.25989 | 10994 ft | 173 kts | 90° |
| 2026-05-08 02:23 | 38.69406 | -91.24449 | 10994 ft | 173 kts | 90° |
| 2026-05-08 02:23 | 38.69409 | -91.22908 | 10994 ft | 173 kts | 90° |
| 2026-05-08 02:24 | 38.69412 | -91.21366 | 10994 ft | 173 kts | 90° |
| 2026-05-08 02:24 | 38.69415 | -91.19825 | 10994 ft | 173 kts | 90° |
| 2026-05-08 02:24 | 38.69418 | -91.18283 | 10994 ft | 173 kts | 90° |
| 2026-05-08 02:24 | 38.69420 | -91.16743 | 10994 ft | 173 kts | 90° |
| 2026-05-08 02:25 | 38.69423 | -91.15200 | 10994 ft | 173 kts | 90° |
| 2026-05-08 02:25 | 38.69425 | -91.13677 | 10994 ft | 173 kts | 90° |
| 2026-05-08 02:25 | 38.69426 | -91.12139 | 10994 ft | 173 kts | 90° |
| 2026-05-08 02:25 | 38.69428 | -91.10596 | 10994 ft | 173 kts | 90° |
| 2026-05-08 02:26 | 38.69430 | -91.09056 | 10994 ft | 173 kts | 90° |
| 2026-05-08 02:26 | 38.69431 | -91.07514 | 10994 ft | 173 kts | 90° |
| 2026-05-08 02:26 | 38.69432 | -91.05969 | 10994 ft | 173 kts | 90° |
| 2026-05-08 02:26 | 38.69433 | -91.04426 | 10994 ft | 173 kts | 90° |
| 2026-05-08 02:27 | 38.69434 | -91.02866 | 10994 ft | 173 kts | 90° |
| 2026-05-08 02:27 | 38.69434 | -91.01304 | 10994 ft | 173 kts | 90° |
| 2026-05-08 02:27 | 38.69434 | -90.99759 | 10994 ft | 173 kts | 90° |
| 2026-05-08 02:27 | 38.69435 | -90.98198 | 10994 ft | 173 kts | 90° |
| 2026-05-08 02:28 | 38.69464 | -90.96659 | 10992 ft | 172 kts | 84° |
| 2026-05-08 02:28 | 38.69551 | -90.95127 | 10992 ft | 173 kts | 87° |
| 2026-05-08 02:28 | 38.69589 | -90.94088 | 10992 ft | 173 kts | 87° |
| 2026-05-08 02:28 | 38.69654 | -90.92543 | 10992 ft | 173 kts | 86° |
| 2026-05-08 02:29 | 38.69717 | -90.91177 | 10966 ft | 174 kts | 86° |
| 2026-05-08 02:29 | 38.69793 | -90.89546 | 10664 ft | 184 kts | 86° |
| 2026-05-08 02:29 | 38.69871 | -90.87888 | 10369 ft | 188 kts | 86° |
| 2026-05-08 02:29 | 38.69950 | -90.86193 | 10072 ft | 189 kts | 86° |
| 2026-05-08 02:30 | 38.70029 | -90.84515 | 9770 ft | 190 kts | 86° |
| 2026-05-08 02:30 | 38.70108 | -90.82823 | 9473 ft | 190 kts | 86° |
| 2026-05-08 02:30 | 38.70186 | -90.81128 | 9175 ft | 191 kts | 86° |
| 2026-05-08 02:30 | 38.70264 | -90.79433 | 8877 ft | 191 kts | 86° |
| 2026-05-08 02:31 | 38.70343 | -90.77738 | 8569 ft | 191 kts | 86° |
| 2026-05-08 02:31 | 38.70420 | -90.76045 | 8280 ft | 189 kts | 86° |
| 2026-05-08 02:31 | 38.70498 | -90.74354 | 7975 ft | 187 kts | 86° |
| 2026-05-08 02:31 | 38.70573 | -90.72647 | 7663 ft | 186 kts | 86° |
| 2026-05-08 02:32 | 38.70646 | -90.70979 | 7360 ft | 185 kts | 86° |
| 2026-05-08 02:32 | 38.70719 | -90.69332 | 7057 ft | 185 kts | 86° |
| 2026-05-08 02:32 | 38.70793 | -90.67665 | 6755 ft | 184 kts | 86° |
| 2026-05-08 02:32 | 38.70863 | -90.66062 | 6456 ft | 184 kts | 86° |
| 2026-05-08 02:33 | 38.70935 | -90.64426 | 6161 ft | 183 kts | 86° |
| 2026-05-08 02:33 | 38.71007 | -90.62772 | 5857 ft | 183 kts | 86° |
| 2026-05-08 02:33 | 38.71078 | -90.61132 | 5555 ft | 183 kts | 86° |
| 2026-05-08 02:33 | 38.71149 | -90.59502 | 5254 ft | 182 kts | 86° |
| 2026-05-08 02:34 | 38.71215 | -90.57970 | 5007 ft | 180 kts | 86° |
| 2026-05-08 02:34 | 38.71281 | -90.56447 | 5001 ft | 169 kts | 86° |
| 2026-05-08 02:34 | 38.71313 | -90.55708 | 4998 ft | 166 kts | 86° |
| 2026-05-08 02:34 | 38.71378 | -90.54192 | 4990 ft | 160 kts | 86° |
| 2026-05-08 02:35 | 38.71439 | -90.52761 | 4993 ft | 156 kts | 86° |
| 2026-05-08 02:35 | 38.71355 | -90.51394 | 4990 ft | 151 kts | 115° |
| 2026-05-08 02:35 | 38.71004 | -90.50607 | 4992 ft | 150 kts | 122° |
| 2026-05-08 02:35 | 38.70464 | -90.49451 | 4992 ft | 149 kts | 121° |
| 2026-05-08 02:36 | 38.69931 | -90.48304 | 4990 ft | 148 kts | 121° |
| 2026-05-08 02:36 | 38.69463 | -90.47296 | 4992 ft | 148 kts | 121° |
| 2026-05-08 02:36 | 38.68956 | -90.46203 | 4991 ft | 147 kts | 121° |
| 2026-05-08 02:36 | 38.68437 | -90.45088 | 4990 ft | 147 kts | 121° |
| 2026-05-08 02:37 | 38.67908 | -90.43946 | 4991 ft | 147 kts | 121° |
| 2026-05-08 02:37 | 38.67377 | -90.42804 | 4991 ft | 147 kts | 121° |
| 2026-05-08 02:37 | 38.66881 | -90.41733 | 4990 ft | 147 kts | 121° |
| 2026-05-08 02:37 | 38.66359 | -90.40607 | 4992 ft | 146 kts | 121° |
| 2026-05-08 02:38 | 38.65834 | -90.39474 | 4992 ft | 146 kts | 121° |
| 2026-05-08 02:38 | 38.65308 | -90.38339 | 4992 ft | 146 kts | 121° |
| 2026-05-08 02:38 | 38.64788 | -90.37217 | 4991 ft | 146 kts | 121° |
| 2026-05-08 02:38 | 38.64263 | -90.36083 | 4991 ft | 146 kts | 121° |
| 2026-05-08 02:39 | 38.63744 | -90.34965 | 4991 ft | 146 kts | 121° |
| 2026-05-08 02:39 | 38.63222 | -90.33837 | 4901 ft | 152 kts | 121° |
| 2026-05-08 02:39 | 38.62686 | -90.32681 | 4764 ft | 158 kts | 121° |
| 2026-05-08 02:39 | 38.62109 | -90.31437 | 4616 ft | 161 kts | 121° |
| 2026-05-08 02:40 | 38.61516 | -90.30158 | 4468 ft | 164 kts | 121° |
| 2026-05-08 02:40 | 38.60917 | -90.28866 | 4319 ft | 165 kts | 121° |
| 2026-05-08 02:40 | 38.60329 | -90.27598 | 4168 ft | 163 kts | 121° |
| 2026-05-08 02:40 | 38.59742 | -90.26330 | 4006 ft | 159 kts | 121° |
| 2026-05-08 02:41 | 38.59368 | -90.25490 | 3898 ft | 157 kts | 116° |
| 2026-05-08 02:41 | 38.59159 | -90.24106 | 3737 ft | 155 kts | 95° |
| 2026-05-08 02:41 | 38.59064 | -90.22697 | 3574 ft | 154 kts | 95° |
| 2026-05-08 02:41 | 38.58971 | -90.21349 | 3502 ft | 148 kts | 95° |
| 2026-05-08 02:42 | 38.58977 | -90.20152 | 3485 ft | 139 kts | 79° |
| 2026-05-08 02:42 | 38.59299 | -90.19006 | 3486 ft | 131 kts | 52° |
| 2026-05-08 02:42 | 38.59926 | -90.18398 | 3489 ft | 124 kts | 24° |
| 2026-05-08 02:42 | 38.60702 | -90.18163 | 3492 ft | 118 kts | 8° |
| 2026-05-08 02:43 | 38.61493 | -90.17975 | 3491 ft | 115 kts | 9° |
| 2026-05-08 02:43 | 38.62272 | -90.17789 | 3489 ft | 113 kts | 9° |
| 2026-05-08 02:43 | 38.63048 | -90.17604 | 3490 ft | 111 kts | 9° |
| 2026-05-08 02:43 | 38.63805 | -90.17423 | 3492 ft | 109 kts | 9° |
| 2026-05-08 02:44 | 38.64549 | -90.17245 | 3488 ft | 108 kts | 9° |
| 2026-05-08 02:44 | 38.65284 | -90.17091 | 3487 ft | 106 kts | 358° |
| 2026-05-08 02:44 | 38.65785 | -90.17623 | 3499 ft | 98 kts | 284° |
| 2026-05-08 02:44 | 38.66064 | -90.18404 | 3496 ft | 99 kts | 316° |
| 2026-05-08 02:45 | 38.66502 | -90.19069 | 3502 ft | 99 kts | 297° |
| 2026-05-08 02:45 | 38.66878 | -90.19810 | 3502 ft | 100 kts | 301° |
| 2026-05-08 02:45 | 38.67288 | -90.20620 | 3364 ft | 114 kts | 302° |
| 2026-05-08 02:45 | 38.67744 | -90.21533 | 3217 ft | 125 kts | 301° |
| 2026-05-08 02:46 | 38.68222 | -90.22506 | 3074 ft | 133 kts | 301° |
| 2026-05-08 02:46 | 38.68730 | -90.23540 | 2871 ft | 142 kts | 301° |
| 2026-05-08 02:46 | 38.69270 | -90.24638 | 2643 ft | 149 kts | 301° |
| 2026-05-08 02:46 | 38.69845 | -90.25811 | 2402 ft | 153 kts | 301° |
| 2026-05-08 02:47 | 38.70423 | -90.26995 | 2152 ft | 153 kts | 301° |
| 2026-05-08 02:47 | 38.71013 | -90.28204 | 1686 ft | 163 kts | 302° |
| 2026-05-08 02:47 | 38.71558 | -90.29294 | 1542 ft | 149 kts | 303° |
| 2026-05-08 02:47 | 38.71914 | -90.29973 | 1644 ft | 126 kts | 303° |
| 2026-05-08 02:48 | 38.72333 | -90.30775 | 1211 ft | 135 kts | 302° |
| 2026-05-08 02:48 | 38.72573 | -90.31256 | 1107 ft | 127 kts | 301° |
| 2026-05-08 02:48 | 38.72831 | -90.31786 | 1052 ft | 116 kts | 301° |
| 2026-05-08 02:48 | 38.73060 | -90.32259 | 1002 ft | 106 kts | 303° |
| 2026-05-08 02:49 | 38.73315 | -90.32799 | 856 ft | 103 kts | 300° |
| 2026-05-08 02:49 | 38.73667 | -90.33581 | 709 ft | 91 kts | 301° |
| 2026-05-08 02:49 | 38.74000 | -90.34236 | 628 ft | 83 kts | 303° |
| 2026-05-08 02:49 | 38.74284 | -90.34818 | 590 ft | 73 kts | 302° |
| 2026-05-08 02:50 | 38.74400 | -90.35057 | 572 ft | 69 kts | 302° |
| 2026-05-08 02:50 | 38.74642 | -90.35541 | 566 ft | 53 kts | 300° |
| 2026-05-08 02:50 | 38.74729 | -90.35671 | 562 ft | 1 kts | 9° |
| 2026-05-08 02:50 | 38.74770 | -90.35647 | 559 ft | 12 kts | 2° |
| 2026-05-08 02:51 | 38.74823 | -90.35648 | 556 ft | 0 kts | 354° |
| 2026-05-08 02:51 | 38.74831 | -90.35648 | 556 ft | 5 kts | 5° |
| 2026-05-08 02:51 | 38.74834 | -90.35598 | 556 ft | 8 kts | 123° |
| 2026-05-08 02:52 | 38.74797 | -90.35519 | 563 ft | 13 kts | 122° |
| 2026-05-08 02:52 | 38.74741 | -90.35407 | 563 ft | 17 kts | 122° |
| 2026-05-08 02:52 | 38.74675 | -90.35272 | 567 ft | 16 kts | 122° |
| 2026-05-08 02:52 | 38.74700 | -90.35161 | 568 ft | 13 kts | 86° |
| 2026-05-08 02:53 | 38.74665 | -90.35072 | 570 ft | 10 kts | 122° |
| 2026-05-08 02:53 | 38.74631 | -90.35003 | 571 ft | 9 kts | 118° |
| 2026-05-08 02:53 | 38.74610 | -90.34942 | 571 ft | 7 kts | 125° |
| 2026-05-08 02:53 | 38.74584 | -90.34925 | 572 ft | 0 kts | 223° |